Tuesday, September 2, 2014, 5:16 PM EDT

KEZF, Fredericksburg, Shannon Airport

Location: Fredericksburg, VA, United States Lat: 38.267
Local Time: 5:16 PM EDT (21:16 GMT) Lon: -77.45
Time Zone: US/Eastern Elev: 85 ft

Show me the last for .
Show Decoded

2014-09-02 16:55 METAR KEZF 022055Z AUTO 21010KT 10SM CLR 35/21 A2987 RMK AO2 T03500208 =
2014-09-02 16:35 METAR KEZF 022035Z AUTO 23009KT 10SM CLR 35/21 A2988 RMK AO2 T03510208 =
2014-09-02 16:15 METAR KEZF 022015Z AUTO 21008KT 10SM CLR 35/21 A2989 RMK AO2 T03500207 =
2014-09-02 15:55 METAR KEZF 021955Z AUTO 22010KT 10SM SCT055 35/20 A2990 RMK AO2 T03510203 =
2014-09-02 15:30 METAR KEZF 021930Z AUTO 24009KT 10SM SCT055 SCT090 35/21 A2990 RMK AO2 T03500205
                 =
2014-09-02 15:15 METAR KEZF 021915Z AUTO 19006KT 10SM SCT055 35/20 A2991 RMK AO2 T03470204 =
2014-09-02 14:55 METAR KEZF 021855Z AUTO 25007KT 220V280 10SM CLR 35/20 A2992 RMK AO2 T03490204 =
2014-09-02 14:35 METAR KEZF 021835Z AUTO 20009KT 10SM CLR 35/21 A2992 RMK AO2 T03450206 =
2014-09-02 14:15 METAR KEZF 021815Z AUTO 21003KT 10SM CLR 34/20 A2993 RMK AO2 T03430204 =
2014-09-02 13:50 METAR KEZF 021750Z AUTO 25007KT 10SM CLR 34/21 A2994 RMK AO2 T03410209 10341
                 20247 =
2014-09-02 13:15 METAR KEZF 021715Z AUTO 25006KT 10SM CLR 34/21 A2995 RMK AO2 T03400214 =
2014-09-02 12:50 METAR KEZF 021650Z AUTO 22006KT 10SM CLR 34/20 A2996 RMK AO2 T03350204 =
2014-09-02 12:35 METAR KEZF 021635Z AUTO 22005KT 10SM CLR 33/21 A2996 RMK AO2 T03330208 =
2014-09-02 12:15 METAR KEZF 021615Z AUTO 27008KT 10SM CLR 33/21 A2997 RMK AO2 T03310205 =
2014-09-02 11:55 METAR KEZF 021555Z AUTO 23008KT 10SM CLR 33/20 A2998 RMK AO2 T03270199 =
2014-09-02 11:35 METAR KEZF 021535Z AUTO 25007KT 10SM CLR 33/21 A2998 RMK AO2 T03270209 =
2014-09-02 11:15 METAR KEZF 021515Z AUTO 23007KT 10SM CLR 33/21 A2999 RMK AO2 T03250212 =
2014-09-02 10:55 METAR KEZF 021455Z AUTO 23009KT 10SM CLR 32/21 A2999 RMK AO2 T03200209 =
2014-09-02 10:35 METAR KEZF 021435Z AUTO 22006KT 10SM CLR 32/22 A2999 RMK AO2 T03170218 =
2014-09-02 10:15 METAR KEZF 021415Z AUTO 22004KT 10SM CLR 31/22 A2999 RMK AO2 T03080217 =
2014-09-02 09:55 METAR KEZF 021355Z AUTO 00000KT 10SM CLR 30/22 A2999 RMK AO2 T02960218 =
2014-09-02 09:35 METAR KEZF 021335Z AUTO 21003KT 10SM CLR 29/22 A2999 RMK AO2 T02880219 =
2014-09-02 09:15 METAR KEZF 021315Z AUTO 23003KT 10SM CLR 28/22 A2999 RMK AO2 T02760218 =
2014-09-02 08:55 METAR KEZF 021255Z AUTO 21003KT 10SM CLR 27/22 A2999 RMK AO2 T02690216 =
2014-09-02 08:35 METAR KEZF 021235Z AUTO 00000KT 10SM CLR 26/22 A2999 RMK AO2 T02610215 =
2014-09-02 08:15 METAR KEZF 021215Z AUTO 00000KT 10SM CLR 25/21 A2999 RMK AO2 T02540214 =
2014-09-02 07:55 METAR KEZF 021155Z AUTO 00000KT 10SM CLR 25/21 A2999 RMK AO2 70001 T02470214
                 10259 20227 =
2014-09-02 07:35 METAR KEZF 021135Z AUTO 00000KT 10SM CLR 24/23 A2999 RMK AO2 T02400226 =
2014-09-02 07:15 METAR KEZF 021115Z AUTO 00000KT 10SM CLR 23/23 A2998 RMK AO2 T02320228 =
2014-09-02 06:55 METAR KEZF 021055Z AUTO 00000KT 10SM CLR 23/23 A2998 RMK AO2 T02330227 =
2014-09-02 06:15 METAR KEZF 021015Z AUTO 00000KT 10SM CLR 23/23 A2997 RMK AO2 T02270227 =
2014-09-02 05:55 METAR KEZF 020955Z AUTO 00000KT 10SM CLR 23/23 A2997 RMK AO2 T02300230 =
2014-09-02 05:35 METAR KEZF 020935Z AUTO 00000KT 10SM CLR 23/23 A2996 RMK AO2 T02330230 =
2014-09-02 05:15 METAR KEZF 020915Z AUTO 00000KT 10SM CLR 24/23 A2996 RMK AO2 T02350232 =
2014-09-02 04:55 METAR KEZF 020855Z AUTO 00000KT 10SM CLR 24/23 A2996 RMK AO2 T02350229 =
2014-09-02 04:35 METAR KEZF 020835Z AUTO 00000KT 10SM CLR 24/23 A2995 RMK AO2 T02370231 =
2014-09-02 04:15 METAR KEZF 020815Z AUTO 00000KT 10SM CLR 24/22 A2996 RMK AO2 T02410220 =
2014-09-02 03:55 METAR KEZF 020755Z AUTO 00000KT 10SM CLR 25/22 A2996 RMK AO2 T02450218 =
2014-09-02 03:35 METAR KEZF 020735Z AUTO 00000KT 10SM CLR 25/22 A2996 RMK AO2 T02490215 =
2014-09-02 03:15 METAR KEZF 020715Z AUTO 23004KT 10SM CLR 25/22 A2996 RMK AO2 T02530215 =
2014-09-02 02:35 METAR KEZF 020635Z AUTO 00000KT 10SM CLR 26/22 A2997 RMK AO2 T02550215 =
2014-09-02 02:15 METAR KEZF 020615Z AUTO 00000KT 10SM CLR 25/22 A2997 RMK AO2 T02480220 =
2014-09-02 01:55 METAR KEZF 020555Z AUTO 00000KT 10SM CLR 26/21 A2997 RMK AO2 T02620211 10277
                 20260 403400237 =
2014-09-02 01:35 METAR KEZF 020535Z AUTO 25003KT 10SM CLR 26/21 A2998 RMK AO2 T02610214 =
2014-09-02 01:15 METAR KEZF 020515Z AUTO 00000KT 10SM CLR 26/22 A2997 RMK AO2 T02600216 =
2014-09-02 00:55 METAR KEZF 020455Z AUTO 24005KT 10SM CLR 26/22 A2997 RMK AO2 T02620218 =
2014-09-02 00:35 METAR KEZF 020435Z AUTO 24005KT 10SM CLR 27/22 A2997 RMK AO2 T02650220 =
2014-09-02 00:15 METAR KEZF 020415Z AUTO 23006KT 10SM CLR 27/22 A2997 RMK AO2 T02680220 =
2014-09-01 23:55 METAR KEZF 020355Z AUTO 23007KT 10SM CLR 27/22 A2998 RMK AO2 T02700220 =
2014-09-01 23:35 METAR KEZF 020335Z AUTO 23006KT 10SM CLR 27/22 A2998 RMK AO2 T02710220 =
2014-09-01 23:15 METAR KEZF 020315Z AUTO 22006KT 10SM CLR 28/22 A2998 RMK AO2 T02760219 =
2014-09-01 22:55 METAR KEZF 020255Z AUTO 23007KT 10SM CLR 28/22 A2997 RMK AO2 T02760220 =
2014-09-01 22:35 METAR KEZF 020235Z AUTO 22006KT 10SM CLR 27/22 A2997 RMK AO2 T02740222 =
2014-09-01 22:15 METAR KEZF 020215Z AUTO 22005KT 10SM CLR 27/23 A2997 RMK AO2 T02690227 =
2014-09-01 21:55 METAR KEZF 020155Z AUTO 19004KT 10SM CLR 27/23 A2996 RMK AO2 T02660232 =
2014-09-01 21:35 METAR KEZF 020135Z AUTO 22004KT 10SM CLR 27/23 A2997 RMK AO2 T02710231 =
2014-09-01 21:15 METAR KEZF 020115Z AUTO 21004KT 10SM CLR 27/23 A2996 RMK AO2 T02650234 =
2014-09-01 20:55 METAR KEZF 020055Z AUTO 20003KT 10SM CLR 27/25 A2996 RMK AO2 T02660245 =
2014-09-01 20:35 METAR KEZF 020035Z AUTO 00000KT 10SM CLR 27/24 A2995 RMK AO2 T02740241 =
2014-09-01 20:15 METAR KEZF 020015Z AUTO 18004KT 10SM CLR 27/24 A2995 RMK AO2 T02720242 =
2014-09-01 19:55 METAR KEZF 012355Z AUTO 16006KT 10SM CLR 28/25 A2995 RMK AO2 T02770254 10340
                 20277 =
2014-09-01 19:35 METAR KEZF 012335Z AUTO 00000KT 10SM CLR 29/25 A2996 RMK AO2 T02910252 =
2014-09-01 19:15 METAR KEZF 012315Z AUTO 00000KT 10SM CLR 31/25 A2995 RMK AO2 T03050249 =
2014-09-01 18:35 METAR KEZF 012235Z AUTO 13004KT 10SM CLR 32/24 A2994 RMK AO2 T03170239 =
2014-09-01 18:15 METAR KEZF 012215Z AUTO 14003KT 10SM CLR 32/24 A2994 RMK AO2 T03210239 =
2014-09-01 17:55 METAR KEZF 012155Z AUTO 14003KT 10SM CLR 31/24 A2994 RMK AO2 T03140240 =
2014-09-01 17:35 METAR KEZF 012135Z AUTO 18003KT 10SM CLR 32/24 A2994 RMK AO2 T03170237 =

Support USWX by starting your Amazon purchase here.